Time,TemperatureF,DewpointF,PressureIn,WindDirection,WindDirectionDegrees,WindSpeedMPH,WindSpeedGustMPH,Humidity,HourlyPrecipIn,Conditions,Clouds,dailyrainin,SolarRadiationWatts/m^2,SoftwareType,DateUTC
2013-07-19 00:12:00,77.0,74.0,30.02,WSW,250,0.0,0.0,89,0.00,,,0.00,0.000000,,2013-07-19 04:12:00,
2013-07-19 00:33:00,77.0,74.0,30.02,WSW,251,0.0,0.0,89,0.00,,,0.00,0.000000,,2013-07-19 04:33:00,
2013-07-19 00:44:00,77.0,74.0,30.02,WSW,251,0.0,0.0,89,0.00,,,0.00,0.000000,,2013-07-19 04:44:00,
2013-07-19 00:52:00,77.0,74.0,30.02,WSW,250,3.0,5.0,90,0.00,,,0.00,0.000000,,2013-07-19 04:52:00,
2013-07-19 01:02:00,77.0,74.0,30.02,WSW,250,3.0,5.0,90,0.00,,,0.00,0.000000,,2013-07-19 05:02:00,
2013-07-19 01:11:00,76.0,73.0,30.02,WSW,251,4.0,6.0,90,0.00,,,0.00,0.000000,,2013-07-19 05:11:00,
2013-07-19 01:32:00,76.0,73.0,30.01,WSW,251,4.0,6.0,90,0.00,,,0.00,0.000000,,2013-07-19 05:32:00,
2013-07-19 01:43:00,77.0,74.0,30.01,WSW,251,4.0,6.0,89,0.00,,,0.00,0.000000,,2013-07-19 05:43:00,
2013-07-19 01:53:00,77.0,74.0,30.01,WSW,251,0.0,6.0,89,0.00,,,0.00,0.000000,,2013-07-19 05:53:00,
2013-07-19 02:01:00,77.0,74.0,30.01,WSW,251,0.0,0.0,89,0.00,,,0.00,0.000000,,2013-07-19 06:01:00,
2013-07-19 02:11:00,77.0,74.0,30.01,WSW,251,0.0,0.0,89,0.00,,,0.00,0.000000,,2013-07-19 06:11:00,
2013-07-19 02:22:00,77.0,74.0,30.00,WSW,251,4.0,6.0,89,0.00,,,0.00,0.000000,,2013-07-19 06:22:00,
2013-07-19 02:33:00,77.0,74.0,30.00,WSW,251,4.0,5.0,89,0.00,,,0.00,0.000000,,2013-07-19 06:33:00,
2013-07-19 02:43:00,77.0,74.0,30.00,WSW,251,4.0,5.0,89,0.00,,,0.00,0.000000,,2013-07-19 06:43:00,
2013-07-19 02:53:00,77.0,74.0,29.99,WSW,251,4.0,7.0,89,0.00,,,0.00,0.000000,,2013-07-19 06:53:00,
2013-07-19 03:01:00,77.0,74.0,29.99,WSW,251,4.0,7.0,89,0.00,,,0.00,0.000000,,2013-07-19 07:01:00,
2013-07-19 03:12:00,77.0,74.0,29.99,WSW,251,4.0,6.0,89,0.00,,,0.00,0.000000,,2013-07-19 07:12:00,
2013-07-19 03:22:00,77.0,74.0,29.99,WSW,251,5.0,7.0,89,0.00,,,0.00,0.000000,,2013-07-19 07:22:00,
2013-07-19 03:32:00,76.0,73.0,29.99,WSW,250,5.0,6.0,89,0.00,,,0.00,0.000000,,2013-07-19 07:32:00,
2013-07-19 03:43:00,76.0,73.0,29.99,WSW,250,5.0,6.0,89,0.00,,,0.00,0.000000,,2013-07-19 07:43:00,
2013-07-19 03:53:00,76.0,73.0,29.98,WSW,251,4.0,7.0,89,0.00,,,0.00,0.000000,,2013-07-19 07:53:00,
2013-07-19 04:01:00,76.0,73.0,29.98,WSW,250,5.0,7.0,90,0.00,,,0.00,0.000000,,2013-07-19 08:01:00,
2013-07-19 04:12:00,76.0,73.0,29.98,WSW,250,5.0,7.0,90,0.00,,,0.00,0.000000,,2013-07-19 08:12:00,
2013-07-19 04:22:00,76.0,73.0,29.97,WSW,251,5.0,8.0,91,0.00,,,0.00,0.000000,,2013-07-19 08:22:00,
2013-07-19 04:33:00,75.0,72.0,29.97,WSW,250,5.0,8.0,91,0.00,,,0.00,0.000000,,2013-07-19 08:33:00,
2013-07-19 04:43:00,75.0,72.0,29.97,WSW,250,5.0,8.0,91,0.00,,,0.00,0.000000,,2013-07-19 08:43:00,
2013-07-19 04:52:00,75.0,72.0,29.96,WSW,251,3.0,5.0,91,0.00,,,0.00,0.000000,,2013-07-19 08:52:00,
2013-07-19 05:02:00,75.0,72.0,29.96,WSW,251,3.0,5.0,91,0.00,,,0.00,0.000000,,2013-07-19 09:02:00,
2013-07-19 05:11:00,75.0,72.0,29.96,WSW,250,0.0,4.0,91,0.00,,,0.00,0.000000,,2013-07-19 09:11:00,
2013-07-19 05:22:00,75.0,72.0,29.96,WSW,251,0.0,0.0,91,0.00,,,0.00,0.000000,,2013-07-19 09:22:00,
2013-07-19 05:43:00,75.0,72.0,29.96,WSW,251,5.0,6.0,91,0.00,,,0.00,0.000000,,2013-07-19 09:43:00,
2013-07-19 05:52:00,74.0,71.0,29.97,WSW,251,0.0,5.0,91,0.00,,,0.00,0.000000,,2013-07-19 09:52:00,
2013-07-19 06:01:00,74.0,71.0,29.97,WSW,251,0.0,5.0,91,0.00,,,0.00,0.000000,,2013-07-19 10:01:00,
2013-07-19 06:11:00,74.0,72.0,29.97,WSW,251,3.0,6.0,92,0.00,,,0.00,0.000000,,2013-07-19 10:11:00,
2013-07-19 06:32:00,74.0,72.0,29.97,WSW,250,5.0,7.0,93,0.00,,,0.00,0.000000,,2013-07-19 10:32:00,
2013-07-19 06:43:00,74.0,72.0,29.97,WSW,251,4.0,7.0,93,0.00,,,0.00,0.000000,,2013-07-19 10:43:00,
2013-07-19 06:52:00,74.0,72.0,29.97,WSW,250,6.0,10.0,93,0.00,,,0.00,5.000000,,2013-07-19 10:52:00,
2013-07-19 07:12:00,74.0,72.0,29.97,WSW,250,7.0,10.0,93,0.00,,,0.00,12.000000,,2013-07-19 11:12:00,
2013-07-19 07:33:00,74.0,72.0,29.97,WSW,251,6.0,7.0,93,0.00,,,0.00,23.000000,,2013-07-19 11:33:00,
2013-07-19 07:43:00,75.0,73.0,29.97,WSW,248,6.0,10.0,93,0.00,,,0.00,40.000000,,2013-07-19 11:43:00,
2013-07-19 07:52:00,75.0,73.0,29.97,SW,223,7.0,11.0,92,0.00,,,0.00,70.000000,,2013-07-19 11:52:00,
2013-07-19 08:01:00,75.0,73.0,29.97,SW,223,7.0,11.0,92,0.00,,,0.00,70.000000,,2013-07-19 12:01:00,
2013-07-19 08:12:00,76.0,73.0,29.97,SW,217,8.0,12.0,91,0.00,,,0.00,91.000000,,2013-07-19 12:12:00,
2013-07-19 08:22:00,77.0,74.0,29.97,SW,228,7.0,12.0,89,0.00,,,0.00,107.000000,,2013-07-19 12:22:00,
2013-07-19 08:43:00,78.0,74.0,29.98,SW,223,6.0,13.0,88,0.00,,,0.00,97.000000,,2013-07-19 12:43:00,
2013-07-19 08:53:00,79.0,75.0,29.98,SW,221,5.0,13.0,87,0.00,,,0.00,190.000000,,2013-07-19 12:53:00,
2013-07-19 09:12:00,79.0,74.0,29.97,SW,230,7.0,12.0,86,0.00,,,0.00,287.000000,,2013-07-19 13:12:00,
2013-07-19 09:22:00,80.0,75.0,29.98,SW,226,7.0,13.0,86,0.00,,,0.00,221.000000,,2013-07-19 13:22:00,
2013-07-19 09:53:00,82.0,76.0,29.98,SW,226,8.0,16.0,83,0.00,,,0.00,431.000000,,2013-07-19 13:53:00,
2013-07-19 10:02:00,82.0,76.0,29.98,SW,226,8.0,16.0,83,0.00,,,0.00,431.000000,,2013-07-19 14:02:00,
2013-07-19 10:12:00,82.0,76.0,29.98,SW,230,11.0,16.0,83,0.00,,,0.00,466.000000,,2013-07-19 14:12:00,
2013-07-19 10:33:00,82.0,76.0,29.98,WSW,239,14.0,18.0,82,0.00,,,0.00,515.000000,,2013-07-19 14:33:00,
2013-07-19 10:43:00,83.0,77.0,29.98,SW,232,11.0,18.0,82,0.00,,,0.00,519.000000,,2013-07-19 14:43:00,
2013-07-19 10:53:00,84.0,77.0,29.98,WSW,238,12.0,18.0,79,0.00,,,0.00,501.000000,,2013-07-19 14:53:00,
2013-07-19 11:02:00,84.0,77.0,29.98,WSW,238,12.0,18.0,79,0.00,,,0.00,501.000000,,2013-07-19 15:02:00,
2013-07-19 11:11:00,84.0,76.0,29.98,SW,230,12.0,18.0,78,0.00,,,0.00,462.000000,,2013-07-19 15:11:00,
2013-07-19 11:23:00,85.0,77.0,29.98,WSW,239,17.0,19.0,76,0.00,,,0.00,462.000000,,2013-07-19 15:23:00,
2013-07-19 11:32:00,85.0,77.0,29.98,WSW,239,17.0,19.0,76,0.00,,,0.00,462.000000,,2013-07-19 15:32:00,
2013-07-19 11:43:00,85.0,77.0,29.97,WSW,246,14.0,20.0,76,0.00,,,0.00,497.000000,,2013-07-19 15:43:00,
2013-07-19 11:52:00,85.0,77.0,29.97,WSW,246,14.0,20.0,76,0.00,,,0.00,497.000000,,2013-07-19 15:52:00,
2013-07-19 12:01:00,85.0,77.0,29.97,WSW,246,14.0,20.0,76,0.00,,,0.00,497.000000,,2013-07-19 16:01:00,
2013-07-19 12:11:00,86.0,78.0,29.97,SW,225,11.0,19.0,76,0.00,,,0.00,585.000000,,2013-07-19 16:11:00,
2013-07-19 12:32:00,86.0,76.0,29.97,WSW,250,14.0,21.0,73,0.00,,,0.00,686.000000,,2013-07-19 16:32:00,
2013-07-19 12:43:00,87.0,77.0,29.96,SW,230,13.0,20.0,73,0.00,,,0.00,770.000000,,2013-07-19 16:43:00,
2013-07-19 12:53:00,87.0,77.0,29.96,SW,234,16.0,21.0,73,0.00,,,0.00,710.000000,,2013-07-19 16:53:00,
2013-07-19 13:12:00,88.0,78.0,29.96,SW,229,15.0,23.0,72,0.00,,,0.00,694.000000,,2013-07-19 17:12:00,
2013-07-19 13:32:00,88.0,78.0,29.95,WSW,245,16.0,20.0,72,0.00,,,0.00,721.000000,,2013-07-19 17:32:00,
2013-07-19 13:43:00,88.0,76.0,29.94,WSW,248,21.0,26.0,68,0.00,,,0.00,733.000000,,2013-07-19 17:43:00,
2013-07-19 14:01:00,88.0,77.0,29.93,WSW,241,12.0,21.0,70,0.00,,,0.00,258.000000,,2013-07-19 18:01:00,
2013-07-19 14:11:00,89.0,77.0,29.93,WSW,244,19.0,22.0,67,0.00,,,0.00,900.000000,,2013-07-19 18:11:00,
2013-07-19 14:32:00,89.0,77.0,29.92,SW,222,15.0,20.0,68,0.00,,,0.00,907.000000,,2013-07-19 18:32:00,
2013-07-19 14:42:00,90.0,77.0,29.91,WSW,250,13.0,22.0,66,0.00,,,0.00,902.000000,,2013-07-19 18:42:00,
2013-07-19 15:11:00,90.0,76.0,29.91,WSW,238,19.0,23.0,64,0.00,,,0.00,909.000000,,2013-07-19 19:11:00,
2013-07-19 15:32:00,90.0,76.0,29.90,SW,229,12.0,18.0,63,0.00,,,0.00,889.000000,,2013-07-19 19:32:00,
2013-07-19 15:43:00,90.0,76.0,29.90,SW,229,12.0,18.0,63,0.00,,,0.00,889.000000,,2013-07-19 19:43:00,
2013-07-19 15:52:00,90.0,76.0,29.88,SW,221,18.0,21.0,64,0.00,,,0.00,837.000000,,2013-07-19 19:52:00,
2013-07-19 16:11:00,90.0,76.0,29.87,WSW,239,17.0,26.0,63,0.00,,,0.00,816.000000,,2013-07-19 20:11:00,
2013-07-19 16:22:00,90.0,76.0,29.87,WSW,246,17.0,24.0,63,0.00,,,0.00,826.000000,,2013-07-19 20:22:00,
2013-07-19 16:33:00,90.0,76.0,29.87,WSW,246,17.0,24.0,63,0.00,,,0.00,826.000000,,2013-07-19 20:33:00,
2013-07-19 16:43:00,90.0,76.0,29.87,WSW,246,17.0,24.0,63,0.00,,,0.00,826.000000,,2013-07-19 20:43:00,
2013-07-19 16:52:00,91.0,77.0,29.85,SW,228,18.0,21.0,64,0.00,,,0.00,747.000000,,2013-07-19 20:52:00,
2013-07-19 17:01:00,91.0,77.0,29.85,SW,228,18.0,21.0,64,0.00,,,0.00,747.000000,,2013-07-19 21:01:00,
2013-07-19 17:11:00,91.0,77.0,29.85,SW,227,15.0,24.0,64,0.00,,,0.00,714.000000,,2013-07-19 21:11:00,
2013-07-19 17:22:00,90.0,76.0,29.84,SW,236,15.0,25.0,63,0.00,,,0.00,712.000000,,2013-07-19 21:22:00,
2013-07-19 17:42:00,90.0,77.0,29.84,SW,221,18.0,21.0,65,0.00,,,0.00,178.000000,,2013-07-19 21:42:00,
2013-07-19 17:52:00,90.0,77.0,29.84,SW,232,15.0,21.0,65,0.00,,,0.00,638.000000,,2013-07-19 21:52:00,
2013-07-19 18:01:00,90.0,77.0,29.84,SW,232,15.0,21.0,65,0.00,,,0.00,638.000000,,2013-07-19 22:01:00,
2013-07-19 18:11:00,90.0,77.0,29.84,SW,226,12.0,22.0,66,0.00,,,0.00,573.000000,,2013-07-19 22:11:00,
2013-07-19 18:32:00,90.0,77.0,29.83,SW,230,12.0,22.0,66,0.00,,,0.00,454.000000,,2013-07-19 22:32:00,
2013-07-19 18:43:00,89.0,76.0,29.83,WSW,239,14.0,22.0,65,0.00,,,0.00,483.000000,,2013-07-19 22:43:00,
2013-07-19 18:52:00,89.0,77.0,29.83,SW,219,11.0,20.0,67,0.00,,,0.00,422.000000,,2013-07-19 22:52:00,
2013-07-19 19:01:00,89.0,77.0,29.83,SW,219,11.0,20.0,67,0.00,,,0.00,422.000000,,2013-07-19 23:01:00,
2013-07-19 19:11:00,89.0,77.0,29.83,SW,219,13.0,19.0,67,0.00,,,0.00,362.000000,,2013-07-19 23:11:00,
2013-07-19 19:33:00,89.0,77.0,29.83,SW,227,13.0,19.0,68,0.00,,,0.00,308.000000,,2013-07-19 23:33:00,
2013-07-19 19:43:00,89.0,77.0,29.83,SW,227,13.0,19.0,68,0.00,,,0.00,308.000000,,2013-07-19 23:43:00,
2013-07-19 19:52:00,88.0,76.0,29.83,SW,230,10.0,18.0,68,0.00,,,0.00,207.000000,,2013-07-19 23:52:00,
2013-07-19 20:01:00,88.0,76.0,29.83,SW,230,10.0,18.0,68,0.00,,,0.00,207.000000,,2013-07-20 00:01:00,
2013-07-19 20:11:00,88.0,76.0,29.83,SW,230,10.0,18.0,68,0.00,,,0.00,207.000000,,2013-07-20 00:11:00,
2013-07-19 20:22:00,87.0,76.0,29.83,SW,235,9.0,15.0,71,0.00,,,0.00,114.000000,,2013-07-20 00:22:00,
2013-07-19 20:32:00,87.0,76.0,29.83,SW,225,10.0,16.0,71,0.00,,,0.00,70.000000,,2013-07-20 00:32:00,
2013-07-19 20:43:00,87.0,76.0,29.83,SW,225,10.0,16.0,71,0.00,,,0.00,70.000000,,2013-07-20 00:43:00,
2013-07-19 20:52:00,86.0,76.0,29.83,SW,214,8.0,12.0,73,0.00,,,0.00,39.000000,,2013-07-20 00:52:00,
2013-07-19 21:01:00,85.0,76.0,29.83,SW,225,9.0,13.0,74,0.00,,,0.00,18.000000,,2013-07-20 01:01:00,
2013-07-19 21:11:00,85.0,76.0,29.83,SW,225,9.0,13.0,74,0.00,,,0.00,18.000000,,2013-07-20 01:11:00,
2013-07-19 21:22:00,84.0,75.0,29.83,SSW,207,10.0,14.0,75,0.00,,,0.00,7.000000,,2013-07-20 01:22:00,
2013-07-19 21:32:00,84.0,75.0,29.83,SSW,207,10.0,14.0,75,0.00,,,0.00,7.000000,,2013-07-20 01:32:00,
2013-07-19 21:52:00,83.0,75.0,29.83,SW,214,11.0,14.0,76,0.00,,,0.00,0.000000,,2013-07-20 01:52:00,
2013-07-19 22:02:00,83.0,75.0,29.83,SW,214,11.0,14.0,76,0.00,,,0.00,0.000000,,2013-07-20 02:02:00,
2013-07-19 22:11:00,83.0,75.0,29.83,SW,214,11.0,14.0,76,0.00,,,0.00,0.000000,,2013-07-20 02:11:00,
2013-07-19 22:22:00,82.0,74.0,29.83,SSW,210,14.0,19.0,76,0.00,,,0.00,0.000000,,2013-07-20 02:22:00,
2013-07-19 22:33:00,82.0,73.0,29.83,SW,227,10.0,16.0,75,0.00,,,0.00,0.000000,,2013-07-20 02:33:00,
2013-07-19 22:44:00,82.0,73.0,29.83,SW,227,10.0,16.0,75,0.00,,,0.00,0.000000,,2013-07-20 02:44:00,
2013-07-19 22:52:00,82.0,74.0,29.84,SW,222,10.0,18.0,76,0.00,,,0.00,0.000000,,2013-07-20 02:52:00,
2013-07-19 23:02:00,82.0,74.0,29.84,SW,222,10.0,18.0,76,0.00,,,0.00,0.000000,,2013-07-20 03:02:00,
2013-07-19 23:12:00,82.0,74.0,29.84,SW,214,9.0,13.0,77,0.00,,,0.00,0.000000,,2013-07-20 03:12:00,
2013-07-19 23:22:00,81.0,73.0,29.84,SW,223,11.0,17.0,78,0.00,,,0.00,0.000000,,2013-07-20 03:22:00,
2013-07-19 23:44:00,81.0,74.0,29.84,SW,215,11.0,16.0,79,0.00,,,0.00,0.000000,,2013-07-20 03:44:00,
2013-07-19 23:53:00,80.0,73.0,29.84,SW,219,10.0,17.0,80,0.00,,,0.00,0.000000,,2013-07-20 03:53:00,